createdAt,value
2019-05-18T00:00:44.703Z,61.40
2019-05-18T00:03:15.198Z,61.40
2019-05-18T00:05:45.891Z,62.30
2019-05-18T00:08:16.674Z,61.40
2019-05-18T00:10:48.376Z,61.50
2019-05-18T00:13:18.933Z,61.50
2019-05-18T00:15:49.382Z,61.60
2019-05-18T00:18:19.855Z,61.70
2019-05-18T00:20:50.352Z,61.80
2019-05-18T00:23:20.862Z,61.90
2019-05-18T00:25:51.490Z,62.00
2019-05-18T00:28:22.399Z,62.10
2019-05-18T00:30:52.887Z,62.00
2019-05-18T00:33:23.436Z,62.10
2019-05-18T00:35:53.943Z,62.30
2019-05-18T00:38:24.603Z,63.20
2019-05-18T00:40:55.076Z,62.40
2019-05-18T00:43:25.838Z,62.60
2019-05-18T00:45:56.375Z,62.80
2019-05-18T00:48:26.874Z,63.30
2019-05-18T00:50:57.401Z,63.30
2019-05-18T00:53:27.952Z,63.20
2019-05-18T00:55:58.450Z,63.20
2019-05-18T00:58:29.133Z,63.20
2019-05-18T01:00:59.596Z,63.10
2019-05-18T01:03:30.151Z,63.60
2019-05-18T01:06:00.616Z,63.30
2019-05-18T01:08:31.208Z,63.20
2019-05-18T01:11:01.692Z,63.20
2019-05-18T01:13:32.250Z,63.10
2019-05-18T01:16:02.720Z,63.30
2019-05-18T01:18:33.191Z,63.50
2019-05-18T01:21:03.710Z,63.50
2019-05-18T01:23:34.236Z,63.70
2019-05-18T01:26:04.775Z,63.70
2019-05-18T01:28:35.212Z,63.80
2019-05-18T01:31:06.049Z,63.70
2019-05-18T01:33:36.566Z,63.70
2019-05-18T01:36:07.019Z,63.70
2019-05-18T01:38:37.505Z,64.60
2019-05-18T01:41:08.089Z,63.90
2019-05-18T01:43:38.565Z,64.00
2019-05-18T01:46:10.458Z,64.00
2019-05-18T01:48:41.156Z,63.40
2019-05-18T01:51:12.800Z,64.10
2019-05-18T01:53:43.350Z,64.00
2019-05-18T01:56:13.880Z,63.90
2019-05-18T01:58:44.372Z,64.10
2019-05-18T02:01:16.145Z,64.90
2019-05-18T02:03:46.635Z,64.50
2019-05-18T02:06:17.132Z,64.60
2019-05-18T02:08:47.691Z,64.90
2019-05-18T02:11:18.245Z,65.10
2019-05-18T02:13:48.716Z,65.30
2019-05-18T02:16:19.325Z,65.30
2019-05-18T02:18:53.095Z,65.70
2019-05-18T02:21:23.555Z,65.60
2019-05-18T02:23:53.999Z,65.80
2019-05-18T02:26:24.454Z,66.00
2019-05-18T02:28:54.911Z,66.10
2019-05-18T02:31:25.416Z,66.40
2019-05-18T02:33:55.883Z,66.40
2019-05-18T02:36:26.380Z,66.60
2019-05-18T02:38:56.809Z,66.50
2019-05-18T02:41:27.303Z,66.60
2019-05-18T02:43:57.731Z,66.60
2019-05-18T02:46:28.208Z,66.70
2019-05-18T02:48:59.013Z,66.70
2019-05-18T02:51:29.614Z,66.60
2019-05-18T02:54:00.198Z,66.50
2019-05-18T02:56:30.807Z,66.30
2019-05-18T02:59:01.465Z,66.20
2019-05-18T03:01:32.047Z,66.20
2019-05-18T03:04:02.553Z,66.20
2019-05-18T03:06:33.020Z,66.30
2019-05-18T03:09:05.391Z,66.50
2019-05-18T03:11:36.608Z,66.60
2019-05-18T03:14:07.152Z,66.70
2019-05-18T03:16:37.655Z,66.60
2019-05-18T03:19:09.260Z,66.70
2019-05-18T03:21:39.926Z,66.70
2019-05-18T03:24:10.507Z,66.80
2019-05-18T03:26:41.480Z,66.90
2019-05-18T03:29:11.932Z,67.90
2019-05-18T03:31:42.583Z,67.00
2019-05-18T03:34:13.033Z,67.10
2019-05-18T03:36:43.513Z,67.10
2019-05-18T03:39:14.246Z,67.10
2019-05-18T03:41:44.732Z,67.00
2019-05-18T03:44:15.315Z,67.00
2019-05-18T03:46:45.778Z,66.90
2019-05-18T03:49:26.128Z,66.80
2019-05-18T03:51:48.589Z,66.80
2019-05-18T03:54:19.019Z,66.60
2019-05-18T03:56:49.498Z,66.80
2019-05-18T03:59:19.984Z,66.80
2019-05-18T04:01:50.638Z,66.80
2019-05-18T04:04:21.070Z,67.00
2019-05-18T04:06:51.532Z,67.00
2019-05-18T04:09:22.086Z,67.10
2019-05-18T04:11:52.711Z,67.20
2019-05-18T04:14:24.556Z,67.40
2019-05-18T04:16:57.776Z,67.30
2019-05-18T04:19:44.726Z,67.30
2019-05-18T04:22:00.946Z,67.30
2019-05-18T04:24:31.544Z,67.30
2019-05-18T04:27:02.196Z,67.30
2019-05-18T04:29:32.691Z,67.40
2019-05-18T04:32:03.503Z,67.40
2019-05-18T04:34:33.975Z,67.50
2019-05-18T04:37:04.517Z,67.40
2019-05-18T04:39:34.989Z,67.50
2019-05-18T04:42:05.471Z,67.50
2019-05-18T04:44:35.949Z,67.60
2019-05-18T04:47:06.858Z,67.60
2019-05-18T04:49:37.748Z,67.80
2019-05-18T04:52:08.415Z,67.90
2019-05-18T04:54:39.477Z,67.80
2019-05-18T04:57:10.188Z,68.00
2019-05-18T04:59:40.692Z,68.10
2019-05-18T05:02:11.256Z,68.30
2019-05-18T05:04:41.703Z,68.80
2019-05-18T05:07:12.295Z,69.00
2019-05-18T05:09:42.798Z,69.10
2019-05-18T05:12:13.282Z,69.00
2019-05-18T05:14:43.796Z,69.10
2019-05-18T05:17:14.318Z,69.00
2019-05-18T05:19:47.064Z,69.10
2019-05-18T05:22:17.716Z,69.00
2019-05-18T05:24:48.256Z,69.30
2019-05-18T05:27:18.800Z,69.30
2019-05-18T05:29:49.680Z,69.40
2019-05-18T05:32:21.800Z,69.50
2019-05-18T05:34:52.537Z,70.10
2019-05-18T05:37:24.115Z,69.50
2019-05-18T05:39:54.908Z,69.50
2019-05-18T05:42:25.396Z,69.50
2019-05-18T05:44:55.879Z,69.60
2019-05-18T05:47:26.806Z,69.60
2019-05-18T05:49:57.424Z,69.60
2019-05-18T05:52:27.882Z,69.70
2019-05-18T05:54:58.478Z,69.60
2019-05-18T05:57:28.974Z,69.60
2019-05-18T05:59:59.512Z,69.90
2019-05-18T06:02:31.191Z,70.00
2019-05-18T06:05:03.332Z,70.00
2019-05-18T06:07:33.922Z,70.10
2019-05-18T06:10:04.770Z,70.10
2019-05-18T06:12:35.283Z,70.20
2019-05-18T06:15:06.216Z,70.20
2019-05-18T06:17:36.707Z,70.40
2019-05-18T06:20:10.535Z,70.60
2019-05-18T06:22:41.376Z,70.70
2019-05-18T06:25:12.325Z,69.80
2019-05-18T06:27:44.692Z,70.00
2019-05-18T06:30:15.599Z,70.30
2019-05-18T06:32:46.159Z,70.90
2019-05-18T06:35:17.978Z,71.20
2019-05-18T06:37:48.564Z,71.30
2019-05-18T06:40:19.112Z,71.20
2019-05-18T06:42:49.712Z,71.20
2019-05-18T06:45:20.518Z,71.10
2019-05-18T06:47:51.037Z,71.00
2019-05-18T06:50:29.829Z,71.10
2019-05-18T06:53:01.742Z,71.80
2019-05-18T06:55:33.784Z,70.80
2019-05-18T06:58:04.710Z,70.60
2019-05-18T07:00:47.526Z,70.60
2019-05-18T07:03:18.030Z,70.30
2019-05-18T07:05:48.600Z,69.90
2019-05-18T07:08:19.265Z,69.90
2019-05-18T07:10:49.896Z,70.00
2019-05-18T07:13:20.491Z,69.80
2019-05-18T07:15:51.380Z,69.70
2019-05-18T07:18:21.916Z,69.40
2019-05-18T07:20:52.947Z,68.70
2019-05-18T07:23:23.415Z,69.30
2019-05-18T07:25:53.921Z,69.20
2019-05-18T07:28:24.400Z,69.00
2019-05-18T07:30:54.878Z,68.80
2019-05-18T07:33:25.380Z,68.70
2019-05-18T07:35:55.845Z,68.50
2019-05-18T07:38:26.389Z,68.50
2019-05-18T07:40:56.897Z,68.30
2019-05-18T07:43:27.423Z,68.10
2019-05-18T07:45:57.931Z,67.80
2019-05-18T07:48:28.422Z,67.60
2019-05-18T07:50:59.001Z,67.40
2019-05-18T07:53:29.611Z,67.20
2019-05-18T07:56:00.089Z,66.80
2019-05-18T07:58:31.799Z,67.50
2019-05-18T08:01:03.145Z,66.30
2019-05-18T08:03:33.710Z,66.30
2019-05-18T08:06:04.217Z,66.00
2019-05-18T08:08:34.724Z,65.80
2019-05-18T08:11:05.226Z,65.60
2019-05-18T08:13:35.753Z,65.50
2019-05-18T08:16:06.337Z,65.20
2019-05-18T08:18:36.834Z,65.00
2019-05-18T08:21:07.361Z,64.80
2019-05-18T08:23:37.945Z,64.50
2019-05-18T08:26:08.791Z,64.40
2019-05-18T08:28:41.055Z,64.30
2019-05-18T08:31:12.997Z,64.10
2019-05-18T08:33:43.569Z,63.90
2019-05-18T08:36:14.076Z,63.70
2019-05-18T08:38:46.632Z,63.50
2019-05-18T08:41:17.331Z,63.20
2019-05-18T08:43:47.780Z,63.00
2019-05-18T08:46:20.495Z,63.00
2019-05-18T08:48:51.087Z,62.80
2019-05-18T08:51:21.699Z,62.50
2019-05-18T08:53:52.246Z,62.30
2019-05-18T08:56:22.864Z,62.10
2019-05-18T08:58:53.632Z,61.90
2019-05-18T09:01:24.287Z,61.70
2019-05-18T09:03:54.838Z,61.60
2019-05-18T09:06:25.375Z,61.40
2019-05-18T09:08:56.003Z,62.10
2019-05-18T09:11:42.107Z,61.00
2019-05-18T09:14:13.238Z,60.70
2019-05-18T09:16:43.742Z,60.40
2019-05-18T09:19:14.630Z,60.00
2019-05-18T09:21:45.165Z,60.00
2019-05-18T09:24:15.677Z,59.90
2019-05-18T09:26:46.338Z,59.80
2019-05-18T09:29:16.955Z,59.50
2019-05-18T09:31:48.222Z,59.40
2019-05-18T09:34:19.081Z,59.30
2019-05-18T09:36:49.665Z,59.20
2019-05-18T09:39:28.856Z,59.00
2019-05-18T09:42:01.884Z,58.80
2019-05-18T09:44:34.656Z,58.60
2019-05-18T09:47:05.265Z,58.50
2019-05-18T09:49:35.746Z,58.40
2019-05-18T09:52:06.401Z,58.20
2019-05-18T09:54:36.981Z,58.10
2019-05-18T09:57:07.442Z,58.00
2019-05-18T09:59:37.972Z,57.90
2019-05-18T10:02:08.605Z,58.30
2019-05-18T10:04:39.316Z,58.00
2019-05-18T10:07:12.603Z,57.30
2019-05-18T10:09:43.131Z,57.20
2019-05-18T10:12:13.614Z,57.10
2019-05-18T10:14:44.200Z,57.00
2019-05-18T10:17:14.753Z,56.70
2019-05-18T10:19:45.322Z,56.40
2019-05-18T10:22:15.810Z,56.50
2019-05-18T10:24:46.332Z,56.00
2019-05-18T10:27:17.284Z,55.70
2019-05-18T10:29:49.555Z,55.40
2019-05-18T10:32:20.460Z,55.20
2019-05-18T10:34:51.140Z,55.00
2019-05-18T10:37:22.774Z,55.10
2019-05-18T10:39:57.196Z,54.00
2019-05-18T10:42:27.696Z,53.90
2019-05-18T10:44:58.876Z,52.70
2019-05-18T10:47:29.322Z,52.10
2019-05-18T10:50:00.264Z,51.90
2019-05-18T10:52:31.134Z,51.50
2019-05-18T10:55:01.810Z,51.10
2019-05-18T10:57:33.772Z,50.70
2019-05-18T11:00:05.125Z,50.80
2019-05-18T11:02:35.655Z,49.60
2019-05-18T11:05:07.599Z,48.80
2019-05-18T11:07:38.320Z,48.20
2019-05-18T11:10:10.454Z,47.70
2019-05-18T11:12:41.128Z,47.30
2019-05-18T11:15:14.676Z,47.00
2019-05-18T11:17:45.149Z,47.00
2019-05-18T11:20:16.555Z,46.90
2019-05-18T11:22:47.158Z,46.80
2019-05-18T11:25:18.263Z,46.80
2019-05-18T11:27:48.931Z,46.90
2019-05-18T11:30:21.054Z,46.60
2019-05-18T11:32:51.633Z,47.20
2019-05-18T11:35:27.487Z,46.40
2019-05-18T11:37:58.012Z,46.50
2019-05-18T11:40:29.007Z,46.30
2019-05-18T11:43:00.738Z,46.10
2019-05-18T11:45:34.091Z,45.80
2019-05-18T11:48:04.710Z,45.60
2019-05-18T11:50:35.169Z,45.60
2019-05-18T11:53:05.729Z,45.60
2019-05-18T11:55:36.181Z,46.00
2019-05-18T11:58:06.714Z,45.40
2019-05-18T12:00:37.250Z,45.20
2019-05-18T12:03:09.185Z,45.00
2019-05-18T12:05:39.616Z,44.60
2019-05-18T12:08:10.343Z,44.40
2019-05-18T12:10:41.070Z,44.00
2019-05-18T12:13:11.543Z,43.70
2019-05-18T12:15:42.182Z,43.50
2019-05-18T12:18:13.178Z,43.00
2019-05-18T12:20:43.948Z,42.50
2019-05-18T12:23:14.421Z,41.80
2019-05-18T12:25:45.144Z,41.10
2019-05-18T12:28:15.683Z,40.50
2019-05-18T12:30:46.735Z,39.70
2019-05-18T12:33:17.219Z,38.70
2019-05-18T12:35:48.156Z,37.90
2019-05-18T12:38:20.742Z,37.10
2019-05-18T12:40:51.371Z,36.40
2019-05-18T12:43:21.976Z,35.70
2019-05-18T12:45:52.867Z,35.20
2019-05-18T12:48:24.571Z,34.70
2019-05-18T12:50:55.177Z,34.40
2019-05-18T12:53:26.118Z,33.90
2019-05-18T12:55:56.655Z,33.50
2019-05-18T12:58:27.163Z,33.20
2019-05-18T13:00:57.687Z,32.70
2019-05-18T13:03:28.404Z,32.40
2019-05-18T13:05:58.979Z,32.20
2019-05-18T13:08:29.831Z,32.40
2019-05-18T13:11:00.326Z,32.10
2019-05-18T13:13:30.849Z,31.80
2019-05-18T13:16:01.416Z,31.60
2019-05-18T13:18:32.033Z,31.20
2019-05-18T13:21:03.211Z,30.70
2019-05-18T13:23:34.137Z,30.50
2019-05-18T13:26:06.697Z,30.80
2019-05-18T13:28:37.201Z,30.00
2019-05-18T13:31:07.714Z,29.90
2019-05-18T13:33:39.835Z,29.60
2019-05-18T13:36:10.423Z,29.40
2019-05-18T13:38:40.989Z,29.40
2019-05-18T13:41:11.807Z,29.40
2019-05-18T13:43:42.483Z,29.10
2019-05-18T13:46:16.008Z,29.10
2019-05-18T13:48:46.668Z,28.90
2019-05-18T13:51:17.166Z,28.70
2019-05-18T13:53:47.817Z,28.70
2019-05-18T13:56:18.469Z,28.80
2019-05-18T13:58:49.377Z,29.00
2019-05-18T14:01:20.147Z,29.10
2019-05-18T14:03:50.735Z,29.70
2019-05-18T14:06:21.320Z,29.30
2019-05-18T14:08:53.863Z,29.50
2019-05-18T14:11:24.507Z,29.60
2019-05-18T14:13:55.062Z,29.60
2019-05-18T14:16:25.543Z,29.40
2019-05-18T14:18:56.083Z,29.30
2019-05-18T14:21:26.629Z,28.50
2019-05-18T14:23:57.564Z,28.40
2019-05-18T14:26:28.378Z,28.00
2019-05-18T14:28:58.944Z,28.00
2019-05-18T14:31:29.475Z,28.00
2019-05-18T14:34:00.107Z,27.70
2019-05-18T14:36:32.921Z,27.60
2019-05-18T14:39:04.577Z,27.30
2019-05-18T14:41:35.080Z,27.10
2019-05-18T14:44:05.774Z,26.90
2019-05-18T14:46:36.308Z,26.70
2019-05-18T14:49:06.827Z,26.60
2019-05-18T14:51:38.251Z,26.20
2019-05-18T14:54:08.782Z,25.90
2019-05-18T14:56:39.306Z,25.70
2019-05-18T14:59:10.006Z,25.50
2019-05-18T15:01:40.616Z,25.20
2019-05-18T15:04:11.137Z,24.90
2019-05-18T15:06:41.736Z,24.50
2019-05-18T15:09:12.346Z,24.10
2019-05-18T15:11:42.957Z,23.40
2019-05-18T15:14:15.128Z,22.90
2019-05-18T15:16:45.714Z,22.30
2019-05-18T15:19:16.352Z,21.90
2019-05-18T15:21:47.252Z,21.60
2019-05-18T15:24:19.440Z,21.50
2019-05-18T15:26:51.435Z,21.30
2019-05-18T15:29:22.001Z,21.10
2019-05-18T15:31:54.765Z,21.10
2019-05-18T15:34:26.190Z,20.90
2019-05-18T15:36:56.670Z,20.60
2019-05-18T15:39:35.506Z,20.30
2019-05-18T15:42:06.576Z,20.00
2019-05-18T15:44:37.905Z,20.30
2019-05-18T15:47:08.688Z,19.70
2019-05-18T15:49:39.819Z,19.40
2019-05-18T15:52:10.547Z,19.20
2019-05-18T15:54:41.371Z,19.50
2019-05-18T15:57:12.643Z,19.00
2019-05-18T15:59:43.644Z,18.90
2019-05-18T16:02:15.298Z,19.00
2019-05-18T16:04:45.867Z,18.90
2019-05-18T16:07:16.566Z,18.80
2019-05-18T16:09:56.511Z,19.00
2019-05-18T16:12:29.184Z,19.00
2019-05-18T16:14:59.678Z,19.10
2019-05-18T16:17:39.260Z,19.10
2019-05-18T16:20:06.420Z,19.10
2019-05-18T16:22:36.986Z,19.20
2019-05-18T16:25:08.723Z,19.10
2019-05-18T16:27:49.815Z,19.10
2019-05-18T16:30:23.778Z,18.90
2019-05-18T16:33:03.678Z,18.80
2019-05-18T16:35:34.201Z,18.80
2019-05-18T16:38:04.679Z,19.00
2019-05-18T16:40:35.296Z,19.00
2019-05-18T16:43:07.272Z,19.20
2019-05-18T16:45:37.785Z,19.30
2019-05-18T16:48:08.250Z,19.30
2019-05-18T16:50:38.905Z,19.40
2019-05-18T16:53:10.289Z,19.50
2019-05-18T16:55:42.955Z,19.70
2019-05-18T16:58:13.477Z,19.90
2019-05-18T17:00:43.979Z,20.40
2019-05-18T17:03:14.499Z,20.50
2019-05-18T17:05:45.111Z,20.40
2019-05-18T17:08:15.900Z,20.40
2019-05-18T17:10:46.632Z,20.20
2019-05-18T17:13:17.180Z,20.20
2019-05-18T17:15:47.886Z,20.60
2019-05-18T17:18:18.395Z,20.30
2019-05-18T17:20:48.930Z,20.40
2019-05-18T17:23:19.411Z,20.80
2019-05-18T17:25:49.900Z,21.00
2019-05-18T17:28:20.363Z,21.20
2019-05-18T17:30:52.145Z,21.50
2019-05-18T17:33:24.073Z,21.90
2019-05-18T17:36:00.348Z,22.10
2019-05-18T17:38:26.930Z,22.40
2019-05-18T17:40:57.947Z,23.40
2019-05-18T17:43:28.846Z,23.30
2019-05-18T17:45:59.498Z,23.60
2019-05-18T17:48:30.630Z,23.90
2019-05-18T17:51:01.325Z,24.30
2019-05-18T17:53:32.030Z,24.70
2019-05-18T17:56:03.910Z,25.00
2019-05-18T17:58:41.496Z,25.30
2019-05-18T18:01:16.471Z,25.80
2019-05-18T18:03:46.969Z,26.20
2019-05-18T18:06:17.473Z,26.50
2019-05-18T18:08:48.638Z,26.90
2019-05-18T18:11:20.941Z,27.20
2019-05-18T18:13:53.215Z,27.60
2019-05-18T18:16:23.949Z,28.00
2019-05-18T18:18:54.482Z,28.30
2019-05-18T18:21:25.814Z,28.70
2019-05-18T18:23:58.617Z,28.90
2019-05-18T18:26:30.157Z,29.40
2019-05-18T18:29:00.705Z,30.10
2019-05-18T18:31:31.510Z,30.00
2019-05-18T18:34:03.507Z,30.50
2019-05-18T18:36:34.086Z,30.90
2019-05-18T18:39:07.297Z,31.60
2019-05-18T18:41:37.909Z,31.70
2019-05-18T18:44:08.501Z,32.20
2019-05-18T18:46:39.428Z,32.80
2019-05-18T18:49:10.398Z,33.30
2019-05-18T18:51:42.812Z,34.80
2019-05-18T18:54:13.559Z,34.60
2019-05-18T18:56:44.251Z,35.20
2019-05-18T18:59:15.213Z,35.90
2019-05-18T19:01:46.866Z,36.50
2019-05-18T19:04:19.249Z,37.00
2019-05-18T19:06:57.517Z,37.40
2019-05-18T19:09:30.704Z,37.80
2019-05-18T19:12:01.048Z,38.20
2019-05-18T19:14:33.364Z,38.50
2019-05-18T19:17:12.736Z,38.90
2019-05-18T19:19:48.895Z,39.30
2019-05-18T19:22:19.565Z,39.70
2019-05-18T19:24:50.581Z,40.10
2019-05-18T19:27:21.485Z,40.70
2019-05-18T19:29:52.635Z,41.20
2019-05-18T19:32:25.895Z,41.50
2019-05-18T19:35:12.418Z,41.80
2019-05-18T19:37:43.146Z,41.90
2019-05-18T19:40:15.319Z,42.20
2019-05-18T19:42:53.640Z,42.60
2019-05-18T19:45:29.309Z,43.00
2019-05-18T19:48:03.249Z,43.20
2019-05-18T19:50:37.296Z,43.50
2019-05-18T19:53:08.247Z,43.80
2019-05-18T19:55:47.789Z,44.00
2019-05-18T19:58:18.589Z,44.40
2019-05-18T20:00:52.839Z,44.60
2019-05-18T20:03:24.035Z,44.90
2019-05-18T20:05:59.057Z,45.00
2019-05-18T20:08:30.180Z,45.30
2019-05-18T20:11:09.324Z,45.50
2019-05-18T20:13:54.947Z,45.70
2019-05-18T20:16:26.547Z,45.90
2019-05-18T20:18:57.272Z,46.10
2019-05-18T20:21:28.899Z,46.30
2019-05-18T20:24:02.592Z,46.60
2019-05-18T20:26:51.018Z,46.90
2019-05-18T20:29:28.068Z,47.20
2019-05-18T20:31:58.956Z,47.50
2019-05-18T20:34:29.670Z,47.70
2019-05-18T20:37:00.316Z,48.00
2019-05-18T20:39:31.196Z,48.30
2019-05-18T20:42:04.182Z,48.50
2019-05-18T20:44:36.017Z,48.70
2019-05-18T20:47:16.574Z,48.90
2019-05-18T20:49:51.821Z,49.00
2019-05-18T20:52:24.005Z,49.20
2019-05-18T20:54:54.764Z,50.00
2019-05-18T20:57:25.766Z,49.50
2019-05-18T20:59:58.326Z,49.70
2019-05-18T21:02:29.126Z,49.80
2019-05-18T21:05:02.853Z,50.00
2019-05-18T21:07:35.620Z,50.20
2019-05-18T21:10:07.146Z,50.30
2019-05-18T21:12:39.693Z,50.50
2019-05-18T21:15:11.282Z,50.60
2019-05-18T21:17:42.283Z,50.80
2019-05-18T21:20:13.252Z,50.90
2019-05-18T21:22:45.251Z,51.00
2019-05-18T21:25:18.172Z,51.20
2019-05-18T21:27:51.510Z,51.30
2019-05-18T21:30:22.209Z,51.40
2019-05-18T21:32:52.824Z,51.60
2019-05-18T21:35:25.166Z,51.70
2019-05-18T21:37:55.740Z,51.90
2019-05-18T21:40:26.867Z,52.70
2019-05-18T21:42:58.503Z,52.30
2019-05-18T21:45:28.998Z,52.40
2019-05-18T21:47:59.629Z,52.60
2019-05-18T21:50:30.162Z,52.70
2019-05-18T21:53:03.746Z,52.80
2019-05-18T21:55:34.252Z,52.90
2019-05-18T21:58:04.753Z,52.90
2019-05-18T22:00:35.375Z,53.00
2019-05-18T22:03:05.897Z,53.10
2019-05-18T22:05:36.520Z,53.10
2019-05-18T22:08:07.009Z,53.20
2019-05-18T22:10:37.507Z,53.20
2019-05-18T22:13:08.005Z,53.30
2019-05-18T22:15:38.514Z,53.40
2019-05-18T22:18:23.283Z,53.40
2019-05-18T22:20:44.342Z,53.50
2019-05-18T22:23:14.965Z,53.50
2019-05-18T22:25:45.497Z,53.60
2019-05-18T22:28:15.951Z,53.70
2019-05-18T22:30:46.477Z,53.80
2019-05-18T22:33:17.009Z,53.80
2019-05-18T22:35:47.550Z,54.00
2019-05-18T22:38:18.032Z,54.10
2019-05-18T22:40:48.535Z,54.20
2019-05-18T22:43:19.023Z,54.30
2019-05-18T22:45:51.613Z,54.40
2019-05-18T22:48:22.076Z,54.50
2019-05-18T22:50:52.603Z,54.60
2019-05-18T22:53:23.082Z,54.60
2019-05-18T22:55:53.889Z,54.70
2019-05-18T22:58:24.437Z,54.70
2019-05-18T23:00:54.909Z,54.80
2019-05-18T23:03:25.496Z,55.60
2019-05-18T23:05:56.017Z,55.70
2019-05-18T23:08:26.648Z,55.80
2019-05-18T23:10:57.117Z,55.90
2019-05-18T23:13:27.599Z,56.00
2019-05-18T23:15:58.056Z,56.10
2019-05-18T23:18:30.803Z,56.20
2019-05-18T23:21:02.995Z,56.20
2019-05-18T23:23:33.519Z,56.30
2019-05-18T23:26:04.084Z,56.40
2019-05-18T23:28:34.520Z,56.50
2019-05-18T23:31:05.109Z,56.60
2019-05-18T23:33:35.598Z,56.70
2019-05-18T23:36:06.082Z,56.80
2019-05-18T23:38:36.349Z,56.90
2019-05-18T23:41:06.939Z,56.90
2019-05-18T23:43:37.396Z,57.10
2019-05-18T23:46:07.903Z,57.10
2019-05-18T23:48:38.352Z,57.10
2019-05-18T23:51:08.863Z,57.20
2019-05-18T23:53:39.342Z,57.30
2019-05-18T23:56:10.948Z,57.40
2019-05-18T23:58:41.717Z,57.50
